CST,Max TemperatureF,Mean TemperatureF,Min TemperatureF,Max Dew PointF,MeanDew PointF,Min DewpointF,Max Humidity, Mean Humidity, Min Humidity, Max Sea Level PressureIn, Mean Sea Level PressureIn, Min Sea Level PressureIn, Max VisibilityMiles, Mean VisibilityMiles, Min VisibilityMiles, Max Wind SpeedMPH, Mean Wind SpeedMPH, Max Gust SpeedMPH,PrecipitationIn, CloudCover, Events, WindDirDegrees
2012-2-1,33,30,28,28,27,25,92,83,75,30.13,30.08,29.96,10,9,5,8,3,,0.00,8,,211
2012-2-2,37,34,30,30,29,28,96,84,70,30.43,30.25,30.09,10,6,2,6,1,,0.00,8,,320
2012-2-3,42,30,17,28,24,12,89,74,51,30.54,30.49,30.40,10,10,10,6,0,,0.00,4,,70
2012-2-4,44,28,12,26,15,9,93,82,47,30.47,30.38,30.29,10,5,0,5,0,,0.00,5,Fog,0
2012-2-5,32,21,10,24,18,6,92,82,66,30.36,30.28,30.12,10,9,4,8,2,,0.00,3,,235
2012-2-6,41,34,26,27,25,21,93,81,55,30.37,30.13,30.03,10,7,2,10,5,22,0.00,7,,245
2012-2-7,27,15,1,19,8,-3,84,66,36,30.58,30.50,30.34,10,10,9,12,7,21,0.00,3,Snow,35
2012-2-8,30,15,0,5,-2,-7,79,52,24,30.51,30.36,30.22,10,10,10,9,2,,0.00,0,,239
2012-2-9,34,22,10,25,14,4,86,65,37,30.20,29.99,29.86,10,7,1,12,3,21,0.02,3,Snow,247
2012-2-10,23,14,3,19,3,-14,89,66,38,30.48,30.20,29.92,10,6,1,12,7,22,0.00,6,Snow,16
2012-2-11,17,8,-2,-5,-10,-15,56,46,34,30.54,30.48,30.43,10,10,10,9,4,17,0.00,0,,273
2012-2-12,27,14,0,-1,-5,-8,75,51,26,30.43,30.30,30.13,10,10,10,9,2,,0.00,0,,242
2012-2-13,30,13,-4,21,9,-10,81,65,43,30.11,29.89,29.72,10,10,10,9,2,17,0.00,6,,198
2012-2-14,28,26,24,22,21,19,84,79,69,29.85,29.76,29.69,10,9,6,6,2,,0.00,8,,194
2012-2-15,39,32,26,30,27,23,93,82,61,30.00,29.90,29.79,10,4,1,7,2,,0.00,7,Snow,201
2012-2-16,37,30,24,30,23,17,93,75,46,30.07,30.01,29.95,10,9,5,9,2,18,0.00,6,,265
2012-2-17,32,24,17,25,21,14,93,81,69,30.13,30.03,29.96,10,8,1,6,1,,0.02,8,Snow,70
2012-2-18,33,20,6,17,10,1,88,66,38,30.26,30.22,30.14,10,10,10,5,1,,0.00,1,,-1
2012-2-19,37,20,3,19,11,-2,83,66,42,30.21,30.17,30.11,10,10,10,8,2,,0.00,0,,194
2012-2-20,39,31,23,27,21,15,86,70,41,30.15,29.94,29.72,10,7,1,18,7,28,0.00,4,Snow,161
2012-2-21,36,32,28,31,27,24,93,86,76,29.71,29.47,29.40,10,4,1,13,8,24,0.06,8,Snow,199
2012-2-22,32,29,25,25,20,17,86,72,54,29.47,29.43,29.40,10,9,2,10,6,18,0.01,8,Snow,269
2012-2-23,32,24,16,20,17,11,84,71,59,29.73,29.61,29.48,10,10,6,6,1,,0.00,7,Snow,60
2012-2-24,25,21,15,19,13,5,81,69,51,30.01,29.81,29.66,10,8,2,9,2,16,0.00,8,Snow,295
2012-2-25,26,17,8,12,8,3,84,72,55,30.24,30.15,30.03,10,8,2,6,2,,0.00,5,Snow,234
2012-2-26,34,28,21,28,22,10,93,75,49,30.17,29.82,29.67,10,6,1,17,8,29,0.01,8,Snow,164
2012-2-27,28,22,15,22,14,9,81,69,49,30.45,30.21,29.85,10,9,2,10,6,20,0.01,5,Snow,286
2012-2-28,32,25,18,27,21,12,93,77,59,30.42,30.11,29.82,10,5,1,14,4,22,0.11,8,Snow,111
2012-2-29,33,30,28,31,28,24,93,88,81,29.80,29.52,29.36,10,3,0,21,13,34,0.60,8,Fog-Snow,65